createdAt,value
2019-04-27T17:46:13.131Z,27.93
2019-04-27T17:48:42.883Z,27.17
2019-04-27T17:51:12.416Z,29.00
2019-04-27T17:53:42.045Z,25.20
2019-04-27T17:56:11.509Z,27.43
2019-04-27T17:58:41.053Z,27.33
2019-04-27T18:01:14.021Z,26.63
2019-04-27T18:03:42.186Z,27.47
2019-04-27T18:06:11.798Z,26.00
2019-04-27T18:08:41.202Z,24.17
2019-04-27T18:11:32.997Z,21.50
2019-04-27T18:14:01.616Z,20.60
2019-04-27T18:16:34.361Z,24.10
2019-04-27T18:19:28.269Z,19.13
2019-04-27T18:22:02.243Z,19.37
2019-04-27T18:24:37.998Z,18.97
2019-04-27T18:27:20.477Z,19.47
2019-04-27T18:29:49.859Z,20.33
2019-04-27T18:32:23.656Z,20.37
2019-04-27T18:34:51.058Z,16.33
2019-04-27T18:37:24.510Z,16.70
2019-04-27T18:39:54.868Z,21.63
2019-04-27T18:42:27.206Z,22.70
2019-04-27T18:44:54.353Z,19.23
2019-04-27T18:47:23.800Z,20.73
2019-04-27T18:50:14.528Z,19.17
2019-04-27T18:52:50.210Z,21.07
2019-04-27T18:55:20.771Z,16.07
2019-04-27T18:57:54.224Z,19.83
2019-04-27T19:00:22.687Z,22.20
2019-04-27T19:02:52.302Z,18.70
2019-04-27T19:05:21.691Z,20.60
2019-04-27T19:07:51.110Z,18.20
2019-04-27T19:10:22.279Z,19.17
2019-04-27T19:12:52.030Z,19.87
2019-04-27T19:15:21.877Z,20.90
2019-04-27T19:17:51.408Z,20.83
2019-04-27T19:20:21.100Z,23.00
2019-04-27T19:22:50.595Z,22.73
2019-04-27T19:25:48.379Z,22.97
2019-04-27T19:28:48.937Z,25.00
2019-04-27T19:31:43.531Z,22.93
2019-04-27T19:34:13.308Z,24.10
2019-04-27T19:36:42.790Z,25.90
2019-04-27T19:39:14.039Z,26.50
2019-04-27T19:41:56.317Z,23.13
2019-04-27T19:44:15.063Z,26.03
2019-04-27T19:46:44.495Z,24.77
2019-04-27T19:49:13.903Z,23.73
2019-04-27T19:51:43.536Z,21.20
2019-04-27T19:54:13.110Z,14.30
2019-04-27T19:56:42.782Z,11.97
2019-04-27T19:59:18.921Z,19.17
2019-04-27T20:01:49.164Z,21.47
2019-04-27T20:04:32.850Z,22.07
2019-04-27T20:07:02.543Z,21.13
2019-04-27T20:09:51.051Z,15.87
2019-04-27T20:12:21.267Z,18.80
2019-04-27T20:14:57.271Z,18.10
2019-04-27T20:17:28.336Z,18.80
2019-04-27T20:19:58.065Z,20.67
2019-04-27T20:22:27.810Z,17.93
2019-04-27T20:24:57.250Z,18.50
2019-04-27T20:27:26.769Z,19.13
2019-04-27T20:29:56.311Z,17.93
2019-04-27T20:32:25.786Z,20.97
2019-04-27T20:34:55.429Z,20.33
2019-04-27T20:37:24.878Z,21.10
2019-04-27T20:39:56.099Z,22.83
2019-04-27T20:42:25.695Z,23.47
2019-04-27T20:44:55.346Z,21.33
2019-04-27T20:47:24.966Z,24.30
2019-04-27T20:49:54.693Z,23.33
2019-04-27T20:52:48.928Z,23.13
2019-04-27T20:55:18.366Z,22.97
2019-04-27T20:57:58.784Z,22.70
2019-04-27T21:00:21.911Z,22.57
2019-04-27T21:03:09.122Z,21.60
2019-04-27T21:06:01.084Z,21.03
2019-04-27T21:08:32.368Z,23.53
2019-04-27T21:11:01.852Z,17.33
2019-04-27T21:13:31.234Z,22.43
2019-04-27T21:16:02.238Z,22.13
2019-04-27T21:18:31.998Z,19.27
2019-04-27T21:21:01.494Z,17.33
2019-04-27T21:23:31.316Z,18.83
2019-04-27T21:26:02.177Z,19.73
2019-04-27T21:28:32.475Z,18.07
2019-04-27T21:31:02.000Z,16.90
2019-04-27T21:33:31.858Z,18.90
2019-04-27T21:36:01.519Z,10.70
2019-04-27T21:38:31.132Z,19.37
2019-04-27T21:41:00.525Z,21.93
2019-04-27T21:43:29.899Z,20.27
2019-04-27T21:45:59.347Z,20.57
2019-04-27T21:48:28.698Z,17.90
2019-04-27T21:50:58.162Z,19.13
2019-04-27T21:53:58.803Z,19.33
2019-04-27T21:56:28.160Z,14.97
2019-04-27T21:58:57.870Z,12.97
2019-04-27T22:01:32.296Z,17.00
2019-04-27T22:04:01.966Z,20.73
2019-04-27T22:06:31.550Z,13.53
2019-04-27T22:09:01.401Z,19.63
2019-04-27T22:11:31.929Z,18.93
2019-04-27T22:14:01.687Z,20.70
2019-04-27T22:16:31.564Z,19.17
2019-04-27T22:19:02.049Z,18.67
2019-04-27T22:21:31.730Z,20.23
2019-04-27T22:24:19.130Z,19.17
2019-04-27T22:26:48.543Z,19.57
2019-04-27T22:29:17.982Z,19.40
2019-04-27T22:31:47.517Z,19.17
2019-04-27T22:34:17.126Z,17.30
2019-04-27T22:36:46.570Z,17.80
2019-04-27T22:39:24.089Z,18.33
2019-04-27T22:42:04.398Z,18.27
2019-04-27T22:44:40.869Z,16.73
2019-04-27T22:47:11.436Z,13.83
2019-04-27T22:49:41.503Z,18.30
2019-04-27T22:52:11.752Z,16.83
2019-04-27T22:54:42.086Z,14.20
2019-04-27T22:57:18.235Z,14.23
2019-04-27T23:00:06.591Z,19.37
2019-04-27T23:02:44.108Z,17.10
2019-04-27T23:05:13.831Z,15.17
2019-04-27T23:07:43.282Z,16.87
2019-04-27T23:10:12.898Z,19.60
2019-04-27T23:12:42.251Z,17.53
2019-04-27T23:15:15.384Z,20.03
2019-04-27T23:17:51.929Z,17.63
2019-04-27T23:20:22.067Z,14.27
2019-04-27T23:22:51.717Z,16.80
2019-04-27T23:25:21.129Z,12.60
2019-04-27T23:27:51.408Z,17.60
2019-04-27T23:30:23.134Z,14.90
2019-04-27T23:32:53.318Z,12.63
2019-04-27T23:35:22.782Z,19.03
2019-04-27T23:37:52.931Z,18.97
2019-04-27T23:40:22.664Z,17.83
2019-04-27T23:42:52.133Z,14.73
2019-04-27T23:45:22.475Z,19.30
2019-04-27T23:47:52.203Z,17.37
2019-04-27T23:50:21.991Z,17.83
2019-04-27T23:53:04.902Z,18.30
2019-04-27T23:55:35.538Z,18.27
2019-04-27T23:58:05.043Z,16.57
